Terminal Aerodrome Forecast
Issued by NWS Twin Cities, MN

Home | Current Version | Previous Version | Graphics & Text | Print | Product List | Glossary Off
Versions: 1 2 3 4 5 6 7 8 9 10 11 12 13 14 15

694
FTUS43 KMPX 271127
TAFSTC
TAF
KSTC 271127Z 2712/2812 VRB03KT P6SM SCT150
     FM271500 17007G12KT P6SM SCT200
     FM280000 14005KT P6SM SCT250=

USA.gov is the U.S. government's official web portal to all federal, state and local government web resources and services.